< Typhoon 196803 1968 Season Typhoon 196805 >
Typhoon 196804 (MARY)
General InformationTrack Information on Google Maps || Disaster Info.ResourceGoogle EarthGE AnimationAtom FeedGeoJSON
Detalied Best Track (Time Zone = UTC)
Year Month Day Hour Lat. Long. Pressure (hPa) Wind (kt) Class Image Chart
1968 7 19 00 13.0 152.0 1000 0 2 -- Chart
1968 7 19 06 13.1 151.3 1004 0 2 -- Chart
1968 7 19 12 13.3 150.5 1004 0 2 -- Chart
1968 7 19 18 13.6 149.8 1004 0 2 -- Chart
1968 7 20 00 13.9 149.2 1004 0 2 -- Chart
1968 7 20 06 14.3 148.4 1000 0 2 -- Chart
1968 7 20 12 14.7 147.8 1000 0 2 -- Chart
1968 7 20 18 15.3 147.5 998 0 2 -- Chart
1968 7 21 00 15.8 147.0 994 0 9 -- Chart
1968 7 21 06 16.5 146.5 990 0 9 -- Chart
1968 7 21 12 17.5 146.0 985 0 9 -- Chart
1968 7 21 18 17.7 145.4 985 0 9 -- Chart
1968 7 22 00 18.0 144.8 980 0 9 -- Chart
1968 7 22 06 18.4 144.0 970 0 9 -- Chart
1968 7 22 12 18.8 143.3 960 0 9 -- Chart
1968 7 22 18 19.1 142.7 955 0 9 -- Chart
1968 7 23 00 19.4 142.4 950 0 9 -- Chart
1968 7 23 06 19.7 142.3 950 0 9 -- Chart
1968 7 23 12 20.1 141.9 945 0 9 -- Chart
1968 7 23 18 20.4 141.9 945 0 9 -- Chart
1968 7 24 00 20.8 140.8 925 0 9 -- Chart
1968 7 24 06 21.4 140.5 925 0 9 -- Chart
1968 7 24 12 22.4 140.0 930 0 9 -- Chart
1968 7 24 18 23.3 138.9 930 0 9 -- Chart
1968 7 25 00 23.9 138.3 935 0 9 -- Chart
1968 7 25 06 24.4 137.6 945 0 9 -- Chart
1968 7 25 12 24.9 137.0 950 0 9 -- Chart
1968 7 25 18 25.6 136.8 950 0 9 -- Chart
1968 7 26 00 26.3 136.7 955 0 9 -- Chart
1968 7 26 06 26.9 136.2 960 0 9 -- Chart
1968 7 26 12 27.5 135.7 965 0 9 -- Chart
1968 7 26 18 28.5 135.4 965 0 9 -- Chart
1968 7 27 00 29.4 134.9 965 0 9 -- Chart
1968 7 27 06 29.9 134.6 965 0 9 -- Chart
1968 7 27 12 30.3 134.7 970 0 9 -- Chart
1968 7 27 18 30.9 134.5 970 0 9 -- Chart
1968 7 28 00 31.6 134.3 970 0 9 -- Chart
1968 7 28 06 32.6 133.7 975 0 9 -- Chart
1968 7 28 12 34.0 132.8 978 0 9 -- Chart
1968 7 28 18 34.5 130.8 980 0 9 -- Chart
1968 7 29 00 33.6 129.7 980 0 9 -- Chart
1968 7 29 06 32.9 129.5 982 0 2 -- Chart
1968 7 29 12 32.7 130.3 986 0 2 -- Chart
1968 7 29 18 32.7 130.6 988 0 2 -- Chart
1968 7 30 00 32.7 132.2 988 0 2 -- Chart
1968 7 30 06 32.6 132.0 988 0 2 -- Chart
1968 7 30 12 32.5 133.7 990 0 2 -- Chart
1968 7 30 18 32.4 134.5 992 0 2 -- Chart
1968 7 31 00 32.4 135.6 994 0 2 -- Chart
1968 7 31 06 32.3 137.2 994 0 2 -- Chart
1968 7 31 12 32.2 138.3 994 0 2 -- Chart
1968 7 31 18 32.0 139.5 996 0 2 -- Chart
1968 8 1 00 32.0 140.5 996 0 2 -- Chart
1968 8 1 06 32.5 141.5 996 0 2 -- Chart
1968 8 1 12 33.5 142.3 1000 0 2 -- Chart
1968 8 1 18 34.4 143.1 1000 0 2 -- Chart
1968 8 2 00 36.0 144.0 1002 0 2 -- Chart
1968 8 2 06 37.3 145.1 1004 0 2 -- Chart
1968 8 2 12 38.4 146.4 1006 0 2 -- Chart
1968 8 2 18 39.7 147.7 1006 0 2 -- Chart
1968 8 3 00 41.0 149.0 1006 0 2 -- Chart
1968 8 3 06 42.0 150.5 1008 0 2 -- Chart
1968 8 3 12 43.0 152.0 1008 0 6 -- Chart
1968 8 3 18 43.5 153.5 1008 0 6 -- Chart
1968 8 4 00 44.0 155.0 1008 0 6 -- Chart
1968 8 4 06 45.0 157.0 1007 0 6 -- Chart
1968 8 4 12 46.0 160.0 1004 0 6 -- Chart
1968 8 4 18 47.0 162.0 1000 0 6 -- Chart
1968 8 5 00 48.2 165.0 998 0 6 -- Chart
1968 8 5 06 49.2 167.0 994 0 6 -- Chart
1968 8 5 12 50.0 169.0 992 0 6 -- Chart
1968 8 5 18 50.7 172.0 990 0 6 -- Chart
1968 8 6 00 51.4 175.5 988 0 6 -- Chart
1968 8 6 06 51.8 178.2 986 0 6 -- Chart
1968 8 6 12 52.0 180.0 986 0 6 -- Chart
Japan Meteorological Agency Best Track Data | Correction Date : 1992-01-27
< Typhoon 196803 1968 Season Typhoon 196805 >

Help